Time;durP1;ratioP1;P1;durP2;ratioP2;P2;SDS_P1;SDS_P2;PMS_P1;PMS_P2;Temp;Humidity;BMP_temperature;BMP_pressure;BME280_temperature;BME280_humidity;BME280_pressure;Samples;Min_cycle;Max_cycle;Signal;HPM_P1;HPM_P2
2023/12/11 00:01:56;;;;;;;38.15;6.80;;;8.80;99.90;;;;;;5025301;28;20041;-68
2023/12/11 00:04:22;;;;;;;28.08;5.15;;;8.70;99.90;;;;;;5023018;28;20117;-68
2023/12/11 00:06:47;;;;;;;38.05;6.40;;;8.80;99.90;;;;;;5020219;28;20045;-67
2023/12/11 00:09:13;;;;;;;39.08;6.88;;;8.80;99.90;;;;;;5021674;28;20038;-67
2023/12/11 00:11:39;;;;;;;38.22;6.97;;;8.80;99.90;;;;;;5020897;28;20029;-67
2023/12/11 00:14:04;;;;;;;38.97;6.15;;;8.80;99.90;;;;;;5022068;28;20030;-68
2023/12/11 00:16:30;;;;;;;41.92;8.32;;;8.80;99.90;;;;;;5021366;28;20049;-68
2023/12/11 00:18:57;;;;;;;35.20;6.20;;;8.80;99.90;;;;;;5021178;28;20054;-67
2023/12/11 00:21:22;;;;;;;43.95;6.82;;;8.80;99.90;;;;;;5023553;28;20407;-68
2023/12/11 00:23:48;;;;;;;44.88;8.30;;;8.80;99.90;;;;;;5023020;28;20046;-68
2023/12/11 00:26:14;;;;;;;36.40;7.28;;;8.80;99.90;;;;;;5020884;28;20041;-68
2023/12/11 00:28:40;;;;;;;38.42;5.70;;;8.80;99.90;;;;;;5019390;28;20033;-68
2023/12/11 00:31:08;;;;;;;43.60;7.03;;;8.70;99.90;;;;;;5020410;28;20549;-68
2023/12/11 00:33:37;;;;;;;35.53;7.13;;;8.70;99.90;;;;;;5021506;28;20045;-68
2023/12/11 00:36:03;;;;;;;36.47;5.82;;;8.70;99.90;;;;;;5023656;28;20037;-68
2023/12/11 00:38:29;;;;;;;36.65;6.32;;;8.70;99.90;;;;;;5022257;28;20056;-68
2023/12/11 00:40:54;;;;;;;39.83;7.07;;;8.70;99.90;;;;;;5018751;28;20531;-67
2023/12/11 00:43:20;;;;;;;37.85;7.70;;;8.70;99.90;;;;;;5024004;28;20240;-67
2023/12/11 00:45:46;;;;;;;36.47;6.65;;;8.70;99.90;;;;;;5024056;28;20048;-68
2023/12/11 00:48:11;;;;;;;29.92;6.55;;;8.70;99.90;;;;;;5020139;28;20038;-68
2023/12/11 00:50:37;;;;;;;29.67;5.63;;;8.70;99.90;;;;;;5009625;28;20041;-68
2023/12/11 00:53:03;;;;;;;37.25;6.07;;;8.70;99.90;;;;;;5020213;28;20415;-67
2023/12/11 00:55:28;;;;;;;35.70;5.55;;;8.70;99.90;;;;;;5021715;28;20037;-67
2023/12/11 00:57:54;;;;;;;34.47;6.10;;;8.70;99.90;;;;;;5018616;28;20145;-68
2023/12/11 01:00:20;;;;;;;31.73;5.68;;;8.70;99.90;;;;;;5019931;28;20041;-67
2023/12/11 01:02:46;;;;;;;29.13;6.15;;;8.70;99.90;;;;;;5023744;28;20048;-68
2023/12/11 01:05:12;;;;;;;34.10;5.80;;;8.80;99.90;;;;;;5023920;28;20042;-67
2023/12/11 01:07:38;;;;;;;29.63;5.20;;;8.80;99.90;;;;;;5025214;28;20083;-67
2023/12/11 01:10:04;;;;;;;39.58;7.63;;;8.90;99.90;;;;;;5025978;28;20760;-68
2023/12/11 01:12:30;;;;;;;30.63;5.53;;;8.90;99.90;;;;;;5022605;28;20124;-68
2023/12/11 01:14:55;;;;;;;34.22;5.88;;;8.90;99.90;;;;;;5022777;28;20049;-67
2023/12/11 01:17:21;;;;;;;25.67;4.88;;;8.90;99.90;;;;;;5026241;28;20411;-67
2023/12/11 01:19:48;;;;;;;27.33;4.32;;;9.00;99.90;;;;;;5023470;28;20104;-68
2023/12/11 01:22:13;;;;;;;31.17;5.03;;;9.00;99.90;;;;;;5024577;28;20455;-68
2023/12/11 01:24:39;;;;;;;31.35;5.97;;;9.00;99.90;;;;;;5024594;28;20120;-68
2023/12/11 01:27:05;;;;;;;31.02;5.40;;;9.00;99.90;;;;;;5025349;28;20484;-68
2023/12/11 01:29:30;;;;;;;37.40;6.93;;;9.00;99.90;;;;;;5025357;28;20046;-68
2023/12/11 01:31:57;;;;;;;37.15;7.15;;;9.00;99.90;;;;;;5022200;28;20071;-68
2023/12/11 01:34:22;;;;;;;25.33;4.10;;;9.10;99.90;;;;;;5025365;28;20038;-67
2023/12/11 01:36:48;;;;;;;30.15;4.88;;;9.10;99.90;;;;;;5023003;28;20037;-67
2023/12/11 01:39:14;;;;;;;32.45;4.82;;;9.10;99.90;;;;;;5026037;28;20085;-67
2023/12/11 01:41:39;;;;;;;27.65;5.28;;;9.10;99.90;;;;;;5025547;28;20076;-68
2023/12/11 01:44:05;;;;;;;26.20;4.18;;;9.10;99.90;;;;;;5021408;28;20045;-68
2023/12/11 01:46:31;;;;;;;29.55;4.57;;;9.10;99.90;;;;;;5022860;28;20045;-68
2023/12/11 01:48:57;;;;;;;27.33;5.03;;;9.10;99.90;;;;;;5022856;28;20037;-68
2023/12/11 01:51:23;;;;;;;37.92;5.60;;;9.10;99.90;;;;;;5024008;28;20495;-67
2023/12/11 01:53:51;;;;;;;35.65;6.32;;;9.00;99.90;;;;;;5029196;28;20037;-68
2023/12/11 01:56:18;;;;;;;24.08;4.97;;;9.00;99.90;;;;;;5021406;28;20073;-68
2023/12/11 01:58:45;;;;;;;36.85;5.47;;;9.00;99.90;;;;;;5022256;28;20042;-68
2023/12/11 02:01:12;;;;;;;37.05;6.32;;;9.00;99.90;;;;;;5023297;28;20045;-68
2023/12/11 02:03:38;;;;;;;33.67;5.30;;;8.90;99.90;;;;;;5024208;28;20033;-67
2023/12/11 02:06:04;;;;;;;38.08;5.63;;;9.00;99.90;;;;;;5024981;28;20046;-67
2023/12/11 02:08:30;;;;;;;36.90;6.28;;;8.90;99.90;;;;;;5023996;28;20047;-67
2023/12/11 02:10:56;;;;;;;34.55;5.28;;;8.90;99.90;;;;;;5022208;28;20078;-68
2023/12/11 02:13:22;;;;;;;32.78;6.32;;;8.80;99.90;;;;;;5021868;28;20037;-67
2023/12/11 02:15:50;;;;;;;34.25;6.95;;;8.80;99.90;;;;;;5019325;28;20468;-68
2023/12/11 02:18:16;;;;;;;48.08;8.52;;;8.90;99.90;;;;;;5021803;28;20123;-68
2023/12/11 02:20:43;;;;;;;35.95;5.32;;;8.80;99.90;;;;;;5022593;28;20049;-68
2023/12/11 02:23:43;;;;;;;40.78;7.63;;;8.80;99.90;;;;;;5025859;28;20493;-68
2023/12/11 02:26:10;;;;;;;39.83;5.93;;;8.90;99.90;;;;;;5020652;28;20053;-67
2023/12/11 02:28:36;;;;;;;40.03;7.57;;;8.90;99.90;;;;;;5022158;28;20284;-68
2023/12/11 02:31:02;;;;;;;37.88;8.45;;;8.90;99.90;;;;;;5024918;28;20180;-68
2023/12/11 02:33:28;;;;;;;46.75;8.75;;;8.90;99.90;;;;;;5025856;28;20041;-67
2023/12/11 02:35:53;;;;;;;40.85;7.30;;;8.90;99.90;;;;;;5021436;28;20046;-68
2023/12/11 02:38:19;;;;;;;46.38;9.52;;;8.90;99.90;;;;;;5021295;28;20053;-67
2023/12/11 02:40:45;;;;;;;41.92;8.10;;;9.00;99.90;;;;;;5020911;28;20048;-68
2023/12/11 02:43:10;;;;;;;45.55;7.45;;;8.90;99.90;;;;;;5020682;28;20171;-67
2023/12/11 02:45:36;;;;;;;41.15;8.25;;;8.90;99.90;;;;;;5022079;28;20039;-67
2023/12/11 02:48:04;;;;;;;34.83;7.25;;;8.90;99.90;;;;;;5020907;28;20196;-67
2023/12/11 02:50:31;;;;;;;42.47;6.72;;;9.00;99.90;;;;;;5018559;28;20037;-67
2023/12/11 02:52:58;;;;;;;42.65;7.65;;;9.00;99.90;;;;;;5021749;28;20052;-67
2023/12/11 02:55:24;;;;;;;45.72;6.70;;;9.00;99.90;;;;;;5020554;28;20076;-67
2023/12/11 02:57:51;;;;;;;43.22;8.02;;;9.00;99.90;;;;;;5022365;28;20128;-67
2023/12/11 03:00:17;;;;;;;51.10;6.78;;;8.90;99.90;;;;;;5020206;28;20092;-67
2023/12/11 03:02:43;;;;;;;48.58;8.60;;;8.90;99.90;;;;;;5021738;28;20072;-67
2023/12/11 03:05:08;;;;;;;50.67;6.55;;;8.90;99.90;;;;;;5021513;28;20087;-68
2023/12/11 03:07:34;;;;;;;44.72;7.00;;;9.00;99.90;;;;;;5021232;28;20753;-67
2023/12/11 03:10:00;;;;;;;42.88;6.78;;;9.00;99.90;;;;;;5022004;28;20056;-67
2023/12/11 03:12:25;;;;;;;46.30;7.13;;;9.00;99.90;;;;;;5022305;28;20049;-67
2023/12/11 03:14:51;;;;;;;38.75;7.50;;;9.00;99.90;;;;;;5024286;28;20041;-68
2023/12/11 03:17:17;;;;;;;46.95;7.53;;;9.00;99.90;;;;;;5023394;28;20111;-67
2023/12/11 03:19:42;;;;;;;45.55;8.27;;;9.00;99.90;;;;;;5022025;28;20044;-67
2023/12/11 03:22:08;;;;;;;46.42;9.07;;;9.00;99.90;;;;;;5025399;28;20396;-67
2023/12/11 03:24:34;;;;;;;37.72;7.43;;;9.10;99.90;;;;;;5022796;28;20124;-67
2023/12/11 03:26:59;;;;;;;44.90;6.55;;;9.10;99.90;;;;;;5024402;28;20037;-67
2023/12/11 03:29:25;;;;;;;38.20;7.97;;;9.10;99.90;;;;;;5018422;28;20045;-67
2023/12/11 03:31:50;;;;;;;45.72;7.35;;;9.10;99.90;;;;;;5021279;28;20034;-67
2023/12/11 03:34:16;;;;;;;40.38;7.28;;;9.10;99.90;;;;;;5037775;28;20124;-67
2023/12/11 03:36:42;;;;;;;50.40;7.60;;;9.10;99.90;;;;;;5021001;28;20073;-67
2023/12/11 03:39:07;;;;;;;36.45;6.72;;;9.10;99.90;;;;;;5021750;28;20415;-68
2023/12/11 03:41:33;;;;;;;52.97;8.23;;;9.10;99.90;;;;;;5020641;28;20037;-68
2023/12/11 03:43:59;;;;;;;42.08;7.25;;;9.10;99.90;;;;;;5020033;28;20138;-68
2023/12/11 03:46:25;;;;;;;45.90;7.10;;;9.10;99.90;;;;;;5021865;28;20099;-67
2023/12/11 03:48:50;;;;;;;40.25;7.22;;;9.10;99.90;;;;;;5021187;28;20129;-67
2023/12/11 03:51:16;;;;;;;46.42;7.53;;;9.20;99.90;;;;;;5022274;28;20168;-68
2023/12/11 03:53:41;;;;;;;51.90;7.43;;;9.20;99.90;;;;;;5022718;28;20029;-67
2023/12/11 03:56:08;;;;;;;43.47;7.35;;;9.10;99.90;;;;;;5021269;28;20038;-67
2023/12/11 03:58:33;;;;;;;37.35;6.68;;;9.20;99.90;;;;;;5021757;28;20056;-67
2023/12/11 04:00:59;;;;;;;45.75;7.63;;;9.20;99.90;;;;;;5022677;28;20491;-67
2023/12/11 04:03:25;;;;;;;54.40;8.00;;;9.20;99.90;;;;;;5023985;28;20479;-68
2023/12/11 04:05:50;;;;;;;46.17;7.45;;;9.20;99.90;;;;;;5019315;28;20041;-67
2023/12/11 04:08:16;;;;;;;39.88;6.82;;;9.20;99.90;;;;;;5021689;28;20049;-68
2023/12/11 04:10:42;;;;;;;47.58;8.70;;;9.20;99.90;;;;;;5023170;28;20045;-67
2023/12/11 04:13:07;;;;;;;45.30;7.20;;;9.30;99.90;;;;;;5022289;28;20030;-68
2023/12/11 04:15:33;;;;;;;35.78;7.03;;;9.20;99.90;;;;;;5020095;28;20030;-68
2023/12/11 04:17:59;;;;;;;43.40;7.13;;;9.30;99.90;;;;;;5023282;28;20407;-68
2023/12/11 04:20:24;;;;;;;35.65;7.47;;;9.30;99.90;;;;;;5021141;28;20554;-67
2023/12/11 04:22:50;;;;;;;50.05;8.15;;;9.30;99.90;;;;;;5024895;28;20049;-67
2023/12/11 04:25:16;;;;;;;39.38;6.53;;;9.30;99.90;;;;;;5021017;28;20416;-67
2023/12/11 04:27:41;;;;;;;37.47;5.97;;;9.30;99.90;;;;;;5025678;28;20049;-68
2023/12/11 04:30:07;;;;;;;46.60;7.15;;;9.30;99.90;;;;;;5022277;28;20037;-68
2023/12/11 04:32:33;;;;;;;34.40;5.75;;;9.30;99.90;;;;;;5007718;28;20475;-68
2023/12/11 04:34:59;;;;;;;40.25;5.88;;;9.30;99.90;;;;;;5009064;28;20038;-68
2023/12/11 04:37:25;;;;;;;39.13;7.65;;;9.30;99.90;;;;;;5025167;28;20041;-68
2023/12/11 04:39:50;;;;;;;39.50;6.53;;;9.30;99.90;;;;;;5027660;28;20071;-68
2023/12/11 04:42:16;;;;;;;44.58;6.30;;;9.30;99.90;;;;;;5024300;28;20041;-68
2023/12/11 04:44:42;;;;;;;28.88;5.97;;;9.40;99.90;;;;;;5022734;28;20057;-68
2023/12/11 04:47:07;;;;;;;38.17;5.72;;;9.30;99.90;;;;;;5026181;28;20037;-68
2023/12/11 04:49:33;;;;;;;39.35;6.18;;;9.30;99.90;;;;;;5023654;28;20141;-68
2023/12/11 04:51:59;;;;;;;39.35;5.55;;;9.20;99.90;;;;;;5025292;28;20037;-68
2023/12/11 04:54:25;;;;;;;34.97;5.78;;;9.20;99.90;;;;;;5023295;28;20116;-67
2023/12/11 04:56:51;;;;;;;34.22;6.40;;;9.20;99.90;;;;;;5011164;28;20128;-68
2023/12/11 04:59:16;;;;;;;37.75;6.72;;;9.30;99.90;;;;;;5027632;28;20045;-67
2023/12/11 05:01:42;;;;;;;32.97;6.32;;;9.30;99.90;;;;;;5024650;28;20056;-67
2023/12/11 05:04:08;;;;;;;45.80;7.63;;;9.30;99.90;;;;;;5028018;28;20064;-67
2023/12/11 05:06:33;;;;;;;39.10;6.22;;;9.30;99.90;;;;;;5025706;28;20132;-68
2023/12/11 05:08:59;;;;;;;38.88;6.35;;;9.20;99.90;;;;;;5027486;28;20033;-68
2023/12/11 05:11:25;;;;;;;34.15;7.00;;;9.20;99.90;;;;;;5024962;28;20040;-67
2023/12/11 05:13:50;;;;;;;46.40;7.55;;;9.30;99.90;;;;;;5022947;28;20044;-68
2023/12/11 05:16:16;;;;;;;33.72;5.95;;;9.20;99.90;;;;;;5023105;28;20025;-67
2023/12/11 05:18:42;;;;;;;35.22;5.53;;;9.20;99.90;;;;;;5022929;28;20041;-67
2023/12/11 05:21:09;;;;;;;38.95;6.55;;;9.30;99.90;;;;;;5025910;28;20061;-68
2023/12/11 05:23:35;;;;;;;32.47;6.13;;;9.20;99.90;;;;;;5024472;28;20045;-68
2023/12/11 05:26:00;;;;;;;36.75;6.72;;;9.20;99.90;;;;;;5023165;28;20053;-68
2023/12/11 05:28:26;;;;;;;38.45;6.28;;;9.20;99.90;;;;;;5023255;28;20038;-68
2023/12/11 05:30:52;;;;;;;37.95;5.90;;;9.20;99.90;;;;;;5022751;28;20041;-68
2023/12/11 05:33:17;;;;;;;36.65;7.03;;;9.10;99.90;;;;;;5021958;28;20053;-68
2023/12/11 05:35:43;;;;;;;35.08;5.88;;;9.20;99.90;;;;;;5024827;28;20040;-68
2023/12/11 05:38:09;;;;;;;35.78;6.53;;;9.20;99.90;;;;;;5023657;28;20117;-68
2023/12/11 05:40:34;;;;;;;32.65;5.60;;;9.20;99.90;;;;;;5026504;28;20052;-68
2023/12/11 05:43:00;;;;;;;33.35;6.20;;;9.20;99.90;;;;;;5021670;28;20120;-68
2023/12/11 05:45:26;;;;;;;33.50;5.57;;;9.20;99.90;;;;;;5023640;28;20041;-67
2023/12/11 05:47:52;;;;;;;39.45;5.45;;;9.20;99.90;;;;;;5026206;28;20042;-68
2023/12/11 05:50:18;;;;;;;31.33;4.60;;;9.20;99.90;;;;;;5021745;28;20045;-68
2023/12/11 05:52:44;;;;;;;37.17;5.32;;;9.30;99.90;;;;;;5025469;28;20403;-68
2023/12/11 05:55:10;;;;;;;35.47;6.10;;;9.20;99.90;;;;;;5027566;28;20124;-67
2023/12/11 05:57:35;;;;;;;28.75;5.57;;;9.30;99.90;;;;;;5022850;28;20044;-68
2023/12/11 06:00:03;;;;;;;28.20;5.32;;;9.20;99.90;;;;;;5023963;28;20049;-67
2023/12/11 06:02:29;;;;;;;30.65;6.13;;;9.30;99.90;;;;;;5022919;28;20042;-68
2023/12/11 06:04:54;;;;;;;26.08;4.72;;;9.30;99.90;;;;;;5023902;28;20418;-67
2023/12/11 06:07:20;;;;;;;26.85;4.05;;;9.30;99.90;;;;;;5025665;28;20042;-67
2023/12/11 06:09:46;;;;;;;35.97;5.93;;;9.30;99.90;;;;;;5022516;28;20493;-68
2023/12/11 06:12:11;;;;;;;29.33;5.32;;;9.30;99.90;;;;;;5024259;28;20037;-67
2023/12/11 06:14:40;;;;;;;28.25;5.55;;;9.30;99.90;;;;;;5028275;28;20038;-67
2023/12/11 06:17:06;;;;;;;29.83;5.50;;;9.30;99.90;;;;;;5024145;28;20131;-68
2023/12/11 06:19:32;;;;;;;32.30;5.15;;;9.30;99.90;;;;;;5022272;28;20077;-68
2023/12/11 06:21:57;;;;;;;28.23;5.43;;;9.30;99.90;;;;;;5023944;28;20567;-68
2023/12/11 06:24:23;;;;;;;32.65;5.53;;;9.30;99.90;;;;;;5025615;28;20044;-68
2023/12/11 06:26:49;;;;;;;34.65;5.82;;;9.30;99.90;;;;;;5023404;28;20041;-67
2023/12/11 06:29:14;;;;;;;32.35;5.95;;;9.30;99.90;;;;;;5020871;28;20506;-68
2023/12/11 06:31:40;;;;;;;29.10;4.63;;;9.30;99.90;;;;;;5022823;28;20068;-68
2023/12/11 06:34:06;;;;;;;35.47;5.90;;;9.20;99.90;;;;;;5025054;28;20060;-67
2023/12/11 06:36:31;;;;;;;33.40;6.53;;;9.30;99.90;;;;;;5025487;28;20041;-68
2023/12/11 06:38:57;;;;;;;29.10;5.03;;;9.20;99.90;;;;;;5022282;28;20080;-68
2023/12/11 06:41:24;;;;;;;26.50;5.25;;;9.30;99.90;;;;;;5022990;28;20173;-68
2023/12/11 06:43:52;;;;;;;25.58;5.65;;;9.30;99.90;;;;;;5022281;28;20446;-68
2023/12/11 06:46:18;;;;;;;28.73;5.45;;;9.30;99.90;;;;;;5024165;28;20396;-68
2023/12/11 06:48:44;;;;;;;26.10;5.25;;;9.30;99.90;;;;;;5026099;28;20050;-68
2023/12/11 06:51:10;;;;;;;29.65;5.90;;;9.20;99.90;;;;;;5022789;28;20124;-68
2023/12/11 06:53:36;;;;;;;27.75;4.82;;;9.30;99.90;;;;;;5022196;28;20041;-67
2023/12/11 06:56:03;;;;;;;33.08;6.03;;;9.30;99.90;;;;;;5023131;28;20045;-67
2023/12/11 06:58:30;;;;;;;35.17;6.63;;;9.30;99.90;;;;;;5024244;28;20049;-68
2023/12/11 07:00:55;;;;;;;29.75;6.20;;;9.30;99.90;;;;;;5021231;28;20448;-67
2023/12/11 07:03:21;;;;;;;28.35;4.75;;;9.30;99.90;;;;;;5021113;28;20048;-68
2023/12/11 07:05:47;;;;;;;37.03;5.22;;;9.30;99.90;;;;;;5024604;28;20042;-68
2023/12/11 07:08:13;;;;;;;23.02;4.13;;;9.30;99.90;;;;;;5024947;28;20408;-68
2023/12/11 07:10:39;;;;;;;24.88;4.60;;;9.30;99.90;;;;;;5020241;28;20034;-68
2023/12/11 07:13:05;;;;;;;28.35;4.68;;;9.30;99.90;;;;;;5020813;28;20037;-68
2023/12/11 07:15:30;;;;;;;27.50;5.38;;;9.30;99.90;;;;;;5020552;28;20057;-68
2023/12/11 07:17:56;;;;;;;26.85;4.70;;;9.20;99.90;;;;;;5024216;28;20396;-68
2023/12/11 07:20:23;;;;;;;25.90;5.03;;;9.20;99.90;;;;;;5009784;28;20037;-68
2023/12/11 07:22:50;;;;;;;36.58;7.75;;;9.30;99.90;;;;;;5020505;28;20053;-68
2023/12/11 07:25:16;;;;;;;24.90;3.38;;;9.20;99.90;;;;;;5021587;28;20041;-68
2023/12/11 07:27:42;;;;;;;32.25;5.25;;;9.20;99.90;;;;;;5025736;28;20030;-68
2023/12/11 07:30:09;;;;;;;25.25;3.83;;;9.20;99.90;;;;;;5022263;28;20519;-68
2023/12/11 07:32:35;;;;;;;24.42;3.70;;;9.20;99.90;;;;;;5022727;28;20496;-67
2023/12/11 07:35:02;;;;;;;23.88;3.85;;;9.20;99.90;;;;;;5008476;28;20088;-68
2023/12/11 07:37:28;;;;;;;29.20;4.78;;;9.10;99.90;;;;;;5021022;28;20087;-68
2023/12/11 07:39:54;;;;;;;31.65;5.80;;;9.10;99.90;;;;;;5022462;28;20124;-68
2023/12/11 07:42:20;;;;;;;27.60;5.82;;;9.10;99.90;;;;;;5024513;28;20044;-68
2023/12/11 07:44:46;;;;;;;30.67;5.82;;;9.10;99.90;;;;;;5023908;28;20041;-68
2023/12/11 07:47:11;;;;;;;27.70;4.13;;;9.10;99.90;;;;;;5022165;28;20056;-68
2023/12/11 07:49:37;;;;;;;22.83;5.15;;;9.10;99.90;;;;;;5023384;28;20079;-68
2023/12/11 07:52:03;;;;;;;26.17;3.58;;;9.10;99.90;;;;;;5023926;28;20193;-68
2023/12/11 07:54:29;;;;;;;25.85;4.18;;;9.10;99.90;;;;;;5021069;28;20038;-68
2023/12/11 07:56:55;;;;;;;25.33;4.80;;;9.10;99.90;;;;;;5021735;28;20061;-68
2023/12/11 07:59:20;;;;;;;17.92;3.28;;;9.10;99.90;;;;;;5022961;28;20049;-68
2023/12/11 08:01:47;;;;;;;24.15;4.03;;;9.10;99.90;;;;;;5025662;28;20033;-68
2023/12/11 08:04:13;;;;;;;20.67;3.70;;;9.00;99.90;;;;;;5024741;28;20100;-68
2023/12/11 08:06:41;;;;;;;15.07;3.42;;;9.10;99.90;;;;;;5024007;28;20463;-68
2023/12/11 08:09:08;;;;;;;23.92;3.33;;;9.00;99.90;;;;;;5023351;28;20045;-68
2023/12/11 08:11:33;;;;;;;18.77;4.13;;;9.00;99.90;;;;;;5023383;28;20049;-68
2023/12/11 08:13:59;;;;;;;15.52;2.80;;;9.10;99.90;;;;;;5026281;28;20080;-68
2023/12/11 08:16:25;;;;;;;16.23;2.47;;;9.10;99.90;;;;;;5026412;28;20160;-68
2023/12/11 08:18:50;;;;;;;10.65;2.15;;;9.00;99.90;;;;;;5027029;28;20052;-67
2023/12/11 08:21:16;;;;;;;10.82;2.38;;;9.00;99.90;;;;;;5026167;28;20048;-68
2023/12/11 08:23:43;;;;;;;12.27;1.95;;;9.10;99.90;;;;;;5027404;28;20041;-68
2023/12/11 08:26:10;;;;;;;16.00;2.90;;;9.00;99.90;;;;;;5024701;28;20041;-68
2023/12/11 08:28:35;;;;;;;17.55;2.83;;;9.10;99.90;;;;;;5026208;28;20045;-68
2023/12/11 08:31:03;;;;;;;15.77;3.20;;;9.10;99.90;;;;;;5026257;28;20042;-68
2023/12/11 08:33:29;;;;;;;15.55;2.83;;;9.00;99.90;;;;;;5022174;28;20396;-68
2023/12/11 08:35:55;;;;;;;9.43;1.75;;;9.10;99.90;;;;;;5024495;28;20137;-68
2023/12/11 08:38:22;;;;;;;12.90;2.67;;;9.10;99.90;;;;;;5023420;28;20045;-68
2023/12/11 08:40:49;;;;;;;15.43;2.28;;;9.10;99.90;;;;;;5023145;28;20049;-68
2023/12/11 08:43:15;;;;;;;16.00;2.30;;;9.00;99.90;;;;;;5024108;28;20045;-68
2023/12/11 08:45:42;;;;;;;17.02;3.83;;;9.00;99.90;;;;;;5024367;28;20042;-68
2023/12/11 08:48:08;;;;;;;13.70;2.33;;;9.00;99.90;;;;;;5025698;28;20045;-68
2023/12/11 08:50:34;;;;;;;9.55;2.17;;;9.10;99.90;;;;;;5022352;28;20049;-68
2023/12/11 08:53:01;;;;;;;14.68;2.83;;;9.10;99.90;;;;;;5023256;28;20037;-68
2023/12/11 08:55:28;;;;;;;9.88;2.30;;;9.10;99.90;;;;;;5024536;28;20044;-67
2023/12/11 08:57:54;;;;;;;12.10;1.85;;;9.00;99.90;;;;;;5020376;28;20037;-67
2023/12/11 09:00:19;;;;;;;14.68;2.97;;;9.10;99.90;;;;;;5024914;28;20246;-68
2023/12/11 09:02:45;;;;;;;15.57;2.17;;;9.10;99.90;;;;;;5023222;28;20037;-68
2023/12/11 09:05:11;;;;;;;11.25;2.63;;;9.10;99.90;;;;;;5025675;28;20042;-68
2023/12/11 09:07:37;;;;;;;12.50;1.92;;;9.10;99.90;;;;;;5023680;28;20172;-67
2023/12/11 09:10:04;;;;;;;12.18;2.70;;;9.10;99.90;;;;;;5026516;28;20038;-67
2023/12/11 09:12:30;;;;;;;11.40;2.25;;;9.20;99.90;;;;;;5040825;28;20041;-67
2023/12/11 09:14:56;;;;;;;15.15;3.10;;;9.20;99.90;;;;;;5025441;28;20041;-68
2023/12/11 09:17:21;;;;;;;13.20;1.85;;;9.20;99.90;;;;;;5027943;28;20616;-68
2023/12/11 09:19:47;;;;;;;15.02;2.42;;;9.30;99.90;;;;;;5025500;28;20041;-68
2023/12/11 09:22:14;;;;;;;12.63;2.22;;;9.20;99.90;;;;;;5021791;28;20037;-68
2023/12/11 09:24:40;;;;;;;13.85;2.50;;;9.20;99.90;;;;;;5022112;28;20440;-68
2023/12/11 09:27:07;;;;;;;14.70;2.75;;;9.30;99.90;;;;;;5025331;28;20036;-68
2023/12/11 09:29:33;;;;;;;15.10;2.20;;;9.40;99.90;;;;;;5023989;28;20042;-68
2023/12/11 09:31:59;;;;;;;15.77;2.55;;;9.40;99.90;;;;;;5024742;28;20124;-68
2023/12/11 09:34:25;;;;;;;12.65;2.42;;;9.30;99.90;;;;;;5021457;28;20037;-68
2023/12/11 09:36:51;;;;;;;10.98;1.70;;;9.40;99.90;;;;;;5026437;28;20479;-68
2023/12/11 09:39:17;;;;;;;11.52;2.15;;;9.50;99.90;;;;;;5022218;28;20037;-68
2023/12/11 09:41:44;;;;;;;15.57;2.60;;;9.40;99.90;;;;;;5022900;28;20053;-68
2023/12/11 09:44:10;;;;;;;12.60;1.98;;;9.50;99.90;;;;;;5021964;28;20046;-68
2023/12/11 09:47:08;;;;;;;13.65;2.00;;;9.60;99.90;;;;;;5022542;28;20072;-68
2023/12/11 09:49:33;;;;;;;7.80;1.65;;;9.60;99.90;;;;;;5001842;28;20054;-68
2023/12/11 09:52:00;;;;;;;12.32;1.83;;;9.60;99.90;;;;;;5024649;28;20362;-67
2023/12/11 09:54:26;;;;;;;14.25;1.77;;;9.50;99.90;;;;;;5024684;28;20073;-68
2023/12/11 09:56:53;;;;;;;14.07;1.52;;;9.60;99.90;;;;;;5024174;28;20095;-68
2023/12/11 09:59:20;;;;;;;10.20;1.50;;;9.50;99.90;;;;;;5021291;28;20057;-68
2023/12/11 10:01:50;;;;;;;12.75;2.05;;;9.50;99.90;;;;;;5022269;28;20388;-68
2023/12/11 10:04:15;;;;;;;11.77;2.17;;;9.50;99.90;;;;;;5025967;28;20132;-68
2023/12/11 10:06:41;;;;;;;10.70;1.90;;;9.60;99.90;;;;;;5021989;28;20219;-68
2023/12/11 10:09:07;;;;;;;14.30;2.92;;;9.60;99.90;;;;;;5021226;28;20046;-68
2023/12/11 10:11:33;;;;;;;13.32;2.20;;;9.60;99.90;;;;;;5019783;28;20042;-68
2023/12/11 10:14:12;;;;;;;14.80;2.40;;;9.60;99.90;;;;;;5023271;28;20045;-68
2023/12/11 10:16:37;;;;;;;13.77;2.10;;;9.60;99.90;;;;;;5019285;28;20037;-68
2023/12/11 10:19:03;;;;;;;13.65;2.15;;;9.70;99.90;;;;;;5022876;28;20506;-67
2023/12/11 10:21:39;;;;;;;16.42;3.15;;;9.70;99.90;;;;;;5020377;28;20045;-67
2023/12/11 10:24:09;;;;;;;15.88;2.47;;;9.70;99.90;;;;;;5021641;28;20120;-68
2023/12/11 10:26:44;;;;;;;15.98;2.38;;;9.70;99.90;;;;;;5021271;28;20053;-68
2023/12/11 10:29:16;;;;;;;18.00;2.20;;;9.70;99.90;;;;;;5037070;28;20045;-67
2023/12/11 10:31:42;;;;;;;15.80;2.85;;;9.80;99.90;;;;;;5006250;28;20041;-68
2023/12/11 10:34:07;;;;;;;15.82;2.45;;;9.70;99.90;;;;;;5019290;28;21273;-67
2023/12/11 10:36:33;;;;;;;18.60;3.05;;;9.80;99.90;;;;;;5016193;28;20064;-67
2023/12/11 10:39:08;;;;;;;17.85;3.22;;;9.80;99.90;;;;;;5021071;28;20053;-68
2023/12/11 10:41:34;;;;;;;18.25;2.83;;;9.80;99.90;;;;;;5032154;28;20084;-68
2023/12/11 10:44:00;;;;;;;20.13;2.97;;;9.80;99.90;;;;;;5015846;28;20046;-68
2023/12/11 10:46:26;;;;;;;13.57;2.38;;;9.70;99.90;;;;;;5023056;28;20033;-67
2023/12/11 10:48:53;;;;;;;15.63;2.03;;;9.80;99.90;;;;;;5021861;28;20113;-67
2023/12/11 10:51:20;;;;;;;17.60;2.53;;;9.80;99.90;;;;;;5021373;28;20048;-67
2023/12/11 10:53:46;;;;;;;15.40;2.35;;;9.80;99.90;;;;;;5016958;28;20033;-68
2023/12/11 10:56:12;;;;;;;15.18;2.03;;;9.80;99.90;;;;;;5017024;28;20518;-68
2023/12/11 10:58:38;;;;;;;10.82;1.88;;;9.80;99.90;;;;;;5020817;28;20503;-68
2023/12/11 11:01:06;;;;;;;11.23;2.42;;;9.70;99.90;;;;;;5015343;28;20132;-68
2023/12/11 11:03:32;;;;;;;18.33;3.75;;;9.70;99.90;;;;;;5018870;28;20050;-67
2023/12/11 11:05:59;;;;;;;15.52;2.95;;;9.70;99.90;;;;;;5020055;28;20554;-67
2023/12/11 11:08:51;;;;;;;19.10;2.60;;;9.60;99.90;;;;;;5014793;28;20191;-68
2023/12/11 11:11:27;;;;;;;15.57;2.33;;;9.60;99.90;;;;;;5017743;28;20060;-68
2023/12/11 11:14:20;;;;;;;16.40;2.33;;;9.60;99.90;;;;;;5020709;28;20098;-68
2023/12/11 11:16:56;;;;;;;15.95;2.47;;;9.60;99.90;;;;;;5018581;28;20057;-67
2023/12/11 11:19:24;;;;;;;17.15;2.20;;;9.80;99.90;;;;;;5018578;28;20563;-68
2023/12/11 11:22:06;;;;;;;15.23;2.38;;;9.60;99.90;;;;;;5017420;28;20135;-68
2023/12/11 11:24:34;;;;;;;20.30;3.95;;;9.70;99.90;;;;;;5018467;28;20103;-68
2023/12/11 11:27:02;;;;;;;12.60;1.75;;;9.60;99.90;;;;;;5021038;28;20435;-68
2023/12/11 11:29:41;;;;;;;9.57;1.85;;;9.60;99.90;;;;;;5019539;28;20053;-68
2023/12/11 11:32:07;;;;;;;10.77;1.60;;;9.60;99.90;;;;;;5018905;28;20041;-67
2023/12/11 11:34:39;;;;;;;16.80;2.08;;;9.60;99.90;;;;;;5020827;28;20050;-68
2023/12/11 11:37:05;;;;;;;11.15;2.03;;;9.70;99.90;;;;;;5019643;28;20094;-68
2023/12/11 11:40:00;;;;;;;13.65;2.78;;;9.60;99.90;;;;;;5017932;28;20045;-68
2023/12/11 11:42:35;;;;;;;12.18;2.00;;;9.60;99.90;;;;;;5020034;28;20479;-67
2023/12/11 11:45:03;;;;;;;15.88;2.78;;;9.60;99.90;;;;;;5021152;28;20438;-68
2023/12/11 11:47:29;;;;;;;15.57;3.42;;;9.60;99.90;;;;;;5023771;28;20487;-68
2023/12/11 11:50:12;;;;;;;18.70;4.15;;;9.60;99.90;;;;;;5017521;28;20046;-68
2023/12/11 11:52:41;;;;;;;22.50;3.35;;;9.50;99.90;;;;;;5017354;28;20048;-68
2023/12/11 11:55:20;;;;;;;16.17;2.67;;;9.60;99.90;;;;;;5020587;28;20046;-68
2023/12/11 11:57:46;;;;;;;21.45;3.92;;;9.60;99.90;;;;;;5019382;28;20054;-67
2023/12/11 12:00:12;;;;;;;20.73;4.47;;;9.50;99.90;;;;;;5017579;28;20037;-67
2023/12/11 12:02:38;;;;;;;21.42;3.80;;;9.50;99.90;;;;;;5019833;28;20042;-67
2023/12/11 12:05:08;;;;;;;19.55;3.40;;;9.50;99.90;;;;;;5017455;28;20049;-67
2023/12/11 12:07:37;;;;;;;16.90;2.60;;;9.50;99.90;;;;;;5018862;28;20034;-67
2023/12/11 12:10:03;;;;;;;20.70;3.75;;;9.50;99.90;;;;;;5017840;28;20048;-67
2023/12/11 12:12:29;;;;;;;20.85;3.17;;;9.50;99.90;;;;;;5020234;28;20128;-67
2023/12/11 12:15:07;;;;;;;15.52;2.17;;;9.60;99.90;;;;;;5019530;28;20038;-67
2023/12/11 12:17:33;;;;;;;16.20;2.78;;;9.40;99.90;;;;;;5020437;28;20041;-67
2023/12/11 12:20:07;;;;;;;17.63;2.83;;;9.50;99.90;;;;;;5016668;28;20116;-67
2023/12/11 12:22:34;;;;;;;12.82;2.38;;;9.50;99.90;;;;;;5020591;28;20037;-67
2023/12/11 12:24:59;;;;;;;11.85;1.52;;;9.60;99.90;;;;;;5020424;28;20076;-67
2023/12/11 12:27:27;;;;;;;9.40;1.63;;;9.60;99.90;;;;;;5019362;28;20076;-67
2023/12/11 12:29:54;;;;;;;13.95;1.83;;;9.60;99.90;;;;;;5021681;28;20435;-67
2023/12/11 12:32:20;;;;;;;13.30;2.80;;;9.60;99.90;;;;;;5019775;28;20033;-67
2023/12/11 12:34:47;;;;;;;8.55;1.20;;;9.70;99.90;;;;;;5020242;28;20495;-67
2023/12/11 12:37:15;;;;;;;9.65;1.48;;;9.60;99.90;;;;;;5021963;28;20159;-67
2023/12/11 12:39:41;;;;;;;9.60;2.08;;;9.70;99.90;;;;;;5020136;28;20052;-67
2023/12/11 12:42:07;;;;;;;6.88;1.20;;;9.90;99.90;;;;;;5017329;28;20037;-67
2023/12/11 12:44:39;;;;;;;5.30;0.75;;;9.70;99.90;;;;;;5020881;28;20049;-67
2023/12/11 12:47:05;;;;;;;14.02;1.83;;;9.60;99.90;;;;;;5022356;28;20064;-67